Time;durP1;ratioP1;P1;durP2;ratioP2;P2;SDS_P1;SDS_P2;PMS_P1;PMS_P2;Temp;Humidity;BMP_temperature;BMP_pressure;BME280_temperature;BME280_humidity;BME280_pressure;Samples;Min_cycle;Max_cycle;Signal;HPM_P1;HPM_P2
2022/03/04 00:01:36;;;;;;;78.70;36.72;;;;;;;;;;758586;183;634950;-68
2022/03/04 00:04:02;;;;;;;79.67;37.40;;;;;;;;;;758333;183;623557;-68
2022/03/04 00:06:28;;;;;;;90.97;41.60;;;;;;;;;;752216;183;633779;-68
2022/03/04 00:08:54;;;;;;;76.47;35.47;;;;;;;;;;754713;183;613671;-68
2022/03/04 00:11:20;;;;;;;72.43;27.70;;;;;;;;;;757421;184;620003;-67
2022/03/04 00:13:46;;;;;;;62.67;31.40;;;;;;;;;;756156;184;622271;-69
2022/03/04 00:16:11;;;;;;;39.03;20.17;;;;;;;;;;759416;184;627780;-67
2022/03/04 00:18:37;;;;;;;53.60;24.27;;;;;;;;;;768525;183;636299;-68
2022/03/04 00:21:03;;;;;;;65.13;29.73;;;;;;;;;;756692;183;624505;-68
2022/03/04 00:23:29;;;;;;;43.90;18.60;;;;;;;;;;765897;183;626287;-68
2022/03/04 00:25:55;;;;;;;45.30;22.20;;;;;;;;;;755239;184;634010;-68
2022/03/04 00:28:21;;;;;;;49.07;24.90;;;;;;;;;;754897;184;630556;-68
2022/03/04 00:30:46;;;;;;;55.70;25.00;;;;;;;;;;759406;184;641210;-70
2022/03/04 00:33:12;;;;;;;40.43;23.23;;;;;;;;;;753993;185;626650;-68
2022/03/04 00:35:38;;;;;;;49.42;23.60;;;;;;;;;;755213;184;678069;-69
2022/03/04 00:38:04;;;;;;;55.50;25.63;;;;;;;;;;752449;185;638956;-67
2022/03/04 00:40:30;;;;;;;51.00;23.43;;;;;;;;;;757807;184;625473;-68
2022/03/04 00:42:56;;;;;;;55.77;24.97;;;;;;;;;;765248;184;614282;-68
2022/03/04 00:45:22;;;;;;;45.73;21.90;;;;;;;;;;755679;184;626813;-67
2022/03/04 00:47:47;;;;;;;54.23;26.90;;;;;;;;;;765297;184;667865;-68
2022/03/04 00:50:13;;;;;;;51.03;23.53;;;;;;;;;;767450;184;621876;-67
2022/03/04 00:52:39;;;;;;;53.80;23.67;;;;;;;;;;751507;185;634850;-67
2022/03/04 00:55:05;;;;;;;65.33;25.00;;;;;;;;;;752533;185;625095;-68
2022/03/04 00:57:31;;;;;;;50.77;22.50;;;;;;;;;;751939;184;634526;-68
2022/03/04 00:59:57;;;;;;;64.97;23.83;;;;;;;;;;753175;186;624271;-68
2022/03/04 01:02:23;;;;;;;49.23;22.63;;;;;;;;;;752745;184;633805;-67
2022/03/04 01:04:48;;;;;;;39.13;18.27;;;;;;;;;;752385;185;619435;-68
2022/03/04 01:07:14;;;;;;;44.47;20.53;;;;;;;;;;760341;184;627043;-68
2022/03/04 01:09:40;;;;;;;63.57;27.40;;;;;;;;;;750634;184;627728;-67
2022/03/04 01:12:06;;;;;;;54.08;25.27;;;;;;;;;;742940;183;646246;-68
2022/03/04 01:14:32;;;;;;;54.53;26.80;;;;;;;;;;754690;183;616021;-68
2022/03/04 01:16:58;;;;;;;46.17;21.90;;;;;;;;;;755595;183;624278;-66
2022/03/04 01:19:24;;;;;;;72.23;28.10;;;;;;;;;;765281;183;627380;-67
2022/03/04 01:21:50;;;;;;;52.30;24.70;;;;;;;;;;763453;183;628984;-68
2022/03/04 01:24:15;;;;;;;56.77;25.97;;;;;;;;;;752379;183;625070;-68
2022/03/04 01:26:41;;;;;;;43.97;23.10;;;;;;;;;;755930;183;627037;-68
2022/03/04 01:29:07;;;;;;;64.70;27.80;;;;;;;;;;753818;184;625807;-67
2022/03/04 01:31:33;;;;;;;51.70;26.20;;;;;;;;;;757158;183;625190;-67
2022/03/04 01:33:59;;;;;;;58.50;27.00;;;;;;;;;;751618;183;618922;-68
2022/03/04 01:36:25;;;;;;;45.43;20.00;;;;;;;;;;752601;183;627940;-67
2022/03/04 01:38:51;;;;;;;49.03;22.67;;;;;;;;;;766865;183;617996;-68
2022/03/04 01:41:16;;;;;;;57.00;28.13;;;;;;;;;;752780;183;628637;-68
2022/03/04 01:43:42;;;;;;;62.53;27.97;;;;;;;;;;761891;183;633347;-68
2022/03/04 01:46:08;;;;;;;60.77;27.07;;;;;;;;;;752420;184;628837;-68
2022/03/04 01:48:34;;;;;;;54.47;25.73;;;;;;;;;;750551;183;625708;-68
2022/03/04 01:51:00;;;;;;;54.57;29.10;;;;;;;;;;751373;184;646527;-69
2022/03/04 01:53:26;;;;;;;45.73;20.23;;;;;;;;;;752786;184;635144;-68
2022/03/04 01:55:51;;;;;;;52.43;24.30;;;;;;;;;;760046;184;628026;-68
2022/03/04 01:58:17;;;;;;;55.43;26.20;;;;;;;;;;754361;185;627023;-67
2022/03/04 02:00:43;;;;;;;58.30;27.10;;;;;;;;;;752257;185;704120;-67
2022/03/04 02:03:09;;;;;;;55.30;25.70;;;;;;;;;;765974;184;663999;-68
2022/03/04 02:05:35;;;;;;;37.27;18.47;;;;;;;;;;762104;184;630419;-68
2022/03/04 02:08:01;;;;;;;47.37;23.97;;;;;;;;;;761702;184;629143;-68
2022/03/04 02:10:26;;;;;;;41.20;18.37;;;;;;;;;;759897;184;614690;-68
2022/03/04 02:12:52;;;;;;;43.37;23.10;;;;;;;;;;753226;184;628090;-68
2022/03/04 02:15:18;;;;;;;44.13;20.60;;;;;;;;;;760520;184;615372;-68
2022/03/04 02:17:44;;;;;;;55.17;26.13;;;;;;;;;;758651;184;623962;-69
2022/03/04 02:20:10;;;;;;;50.63;24.80;;;;;;;;;;762124;184;700973;-68
2022/03/04 02:22:36;;;;;;;52.23;25.97;;;;;;;;;;761687;184;632590;-69
2022/03/04 02:25:05;;;;;;;40.07;21.47;;;;;;;;;;751103;183;634134;-68
2022/03/04 02:27:28;;;;;;;27.77;14.17;;;;;;;;;;756285;183;638025;-68
2022/03/04 02:29:53;;;;;;;47.77;23.23;;;;;;;;;;759974;185;623381;-68
2022/03/04 02:32:20;;;;;;;39.58;20.67;;;;;;;;;;755295;184;616561;-68
2022/03/04 02:34:46;;;;;;;32.93;17.37;;;;;;;;;;755059;183;623230;-68
2022/03/04 02:37:11;;;;;;;42.20;21.70;;;;;;;;;;751092;184;636198;-68
2022/03/04 02:39:37;;;;;;;44.20;21.43;;;;;;;;;;746056;183;692321;-67
2022/03/04 02:42:03;;;;;;;42.33;22.20;;;;;;;;;;753425;183;635913;-68
2022/03/04 02:44:29;;;;;;;49.80;24.63;;;;;;;;;;752749;183;630146;-67
2022/03/04 02:46:55;;;;;;;45.20;22.80;;;;;;;;;;763904;183;627301;-68
2022/03/04 02:49:21;;;;;;;37.58;22.30;;;;;;;;;;764486;184;633943;-67
2022/03/04 02:51:46;;;;;;;47.23;22.30;;;;;;;;;;768623;181;642040;-68
2022/03/04 02:54:12;;;;;;;46.93;21.43;;;;;;;;;;751173;184;629041;-69
2022/03/04 02:56:38;;;;;;;40.57;21.77;;;;;;;;;;752715;184;626020;-67
2022/03/04 02:59:04;;;;;;;42.37;21.60;;;;;;;;;;757461;183;627455;-68
2022/03/04 03:01:30;;;;;;;48.70;23.03;;;;;;;;;;752557;184;635873;-67
2022/03/04 03:03:56;;;;;;;46.90;22.90;;;;;;;;;;763856;184;664102;-67
2022/03/04 03:06:22;;;;;;;46.13;20.27;;;;;;;;;;765882;184;723140;-68
2022/03/04 03:08:47;;;;;;;50.70;23.10;;;;;;;;;;749279;184;636879;-68
2022/03/04 03:11:13;;;;;;;44.75;22.80;;;;;;;;;;753733;184;619192;-68
2022/03/04 03:13:39;;;;;;;48.30;24.40;;;;;;;;;;759766;184;625203;-67
2022/03/04 03:16:05;;;;;;;48.60;24.60;;;;;;;;;;761393;184;622398;-68
2022/03/04 03:18:31;;;;;;;48.90;23.63;;;;;;;;;;760597;184;628056;-68
2022/03/04 03:20:57;;;;;;;58.47;25.93;;;;;;;;;;752785;184;624155;-68
2022/03/04 03:23:22;;;;;;;46.63;24.13;;;;;;;;;;743940;185;633619;-68
2022/03/04 03:25:48;;;;;;;47.60;25.37;;;;;;;;;;754179;184;637151;-67
2022/03/04 03:28:14;;;;;;;45.20;20.10;;;;;;;;;;752910;184;623273;-68
2022/03/04 03:30:40;;;;;;;52.47;23.37;;;;;;;;;;766426;184;631859;-68
2022/03/04 03:33:06;;;;;;;48.40;23.50;;;;;;;;;;749407;183;628552;-67
2022/03/04 03:35:32;;;;;;;47.67;25.10;;;;;;;;;;756542;183;629021;-68
2022/03/04 03:37:58;;;;;;;54.53;24.13;;;;;;;;;;759549;184;636336;-67
2022/03/04 03:40:23;;;;;;;45.00;22.00;;;;;;;;;;764439;183;616499;-68
2022/03/04 03:42:49;;;;;;;54.13;22.20;;;;;;;;;;762207;183;627028;-68
2022/03/04 03:45:15;;;;;;;53.43;24.50;;;;;;;;;;758197;183;633977;-68
2022/03/04 03:47:41;;;;;;;50.50;20.80;;;;;;;;;;758967;184;625359;-68
2022/03/04 03:50:09;;;;;;;54.30;27.43;;;;;;;;;;753218;184;624834;-68
2022/03/04 03:52:33;;;;;;;55.80;26.83;;;;;;;;;;757367;183;617093;-67
2022/03/04 03:54:59;;;;;;;62.37;27.83;;;;;;;;;;753556;184;615560;-67
2022/03/04 03:57:25;;;;;;;52.60;23.90;;;;;;;;;;751552;183;627808;-68
2022/03/04 03:59:50;;;;;;;48.87;22.77;;;;;;;;;;752076;183;629353;-68
2022/03/04 04:02:16;;;;;;;62.87;28.93;;;;;;;;;;754812;184;615186;-68
2022/03/04 04:04:42;;;;;;;60.93;28.87;;;;;;;;;;751348;184;723388;-68
2022/03/04 04:07:08;;;;;;;57.63;28.03;;;;;;;;;;749945;184;707995;-68
2022/03/04 04:09:34;;;;;;;69.73;30.00;;;;;;;;;;755329;184;638940;-67
2022/03/04 04:12:00;;;;;;;56.33;27.13;;;;;;;;;;757218;184;635556;-68
2022/03/04 04:14:26;;;;;;;64.57;30.67;;;;;;;;;;753905;184;617134;-68
2022/03/04 04:16:51;;;;;;;55.43;26.77;;;;;;;;;;754439;184;621945;-70
2022/03/04 04:19:17;;;;;;;71.70;32.40;;;;;;;;;;751612;184;633381;-68
2022/03/04 04:21:43;;;;;;;62.77;31.20;;;;;;;;;;756919;184;642069;-68
2022/03/04 04:24:09;;;;;;;63.00;30.20;;;;;;;;;;752736;185;632678;-68
2022/03/04 04:26:35;;;;;;;81.80;38.30;;;;;;;;;;767643;184;619069;-68
2022/03/04 04:29:01;;;;;;;68.30;34.53;;;;;;;;;;760187;184;629260;-68
2022/03/04 04:31:27;;;;;;;73.67;37.13;;;;;;;;;;753998;184;629208;-67
2022/03/04 04:33:53;;;;;;;86.03;39.90;;;;;;;;;;762090;184;622629;-68
2022/03/04 04:36:18;;;;;;;69.10;35.87;;;;;;;;;;755076;184;644042;-68
2022/03/04 04:38:45;;;;;;;70.10;35.43;;;;;;;;;;754008;184;672706;-68
2022/03/04 04:41:10;;;;;;;74.62;36.78;;;;;;;;;;754869;184;634343;-68
2022/03/04 04:43:36;;;;;;;74.53;37.93;;;;;;;;;;755624;184;615935;-68
2022/03/04 04:46:02;;;;;;;68.60;33.73;;;;;;;;;;757712;183;636243;-68
2022/03/04 04:48:28;;;;;;;75.47;34.07;;;;;;;;;;759260;182;636430;-69
2022/03/04 04:50:54;;;;;;;76.00;35.07;;;;;;;;;;757315;183;616768;-67
2022/03/04 04:53:20;;;;;;;63.07;30.87;;;;;;;;;;759486;183;650394;-67
2022/03/04 04:55:46;;;;;;;79.67;42.47;;;;;;;;;;754113;184;616975;-68
2022/03/04 04:58:11;;;;;;;69.73;36.30;;;;;;;;;;755959;184;635938;-68
2022/03/04 05:00:37;;;;;;;64.20;32.33;;;;;;;;;;753587;184;620118;-67
2022/03/04 05:03:03;;;;;;;94.10;42.17;;;;;;;;;;759800;184;636019;-68
2022/03/04 05:05:29;;;;;;;70.60;36.40;;;;;;;;;;759938;184;635619;-68
2022/03/04 05:07:55;;;;;;;94.70;44.47;;;;;;;;;;756454;184;640735;-68
2022/03/04 05:10:21;;;;;;;83.70;42.23;;;;;;;;;;756742;184;623595;-68
2022/03/04 05:12:46;;;;;;;88.47;43.17;;;;;;;;;;753720;183;629039;-68
2022/03/04 05:15:12;;;;;;;76.67;38.60;;;;;;;;;;765139;183;619561;-67
2022/03/04 05:17:38;;;;;;;89.20;40.10;;;;;;;;;;761125;184;629079;-68
2022/03/04 05:20:04;;;;;;;69.77;34.23;;;;;;;;;;752024;184;624359;-68
2022/03/04 05:22:30;;;;;;;73.90;33.90;;;;;;;;;;754820;184;637447;-68
2022/03/04 05:24:56;;;;;;;72.47;34.40;;;;;;;;;;755259;184;626640;-68
2022/03/04 05:27:22;;;;;;;68.93;38.00;;;;;;;;;;754246;184;633685;-68
2022/03/04 05:29:48;;;;;;;76.83;35.53;;;;;;;;;;759352;184;620773;-69
2022/03/04 05:32:14;;;;;;;74.57;34.87;;;;;;;;;;753381;184;616222;-68
2022/03/04 05:34:41;;;;;;;58.07;28.03;;;;;;;;;;754740;184;628101;-69
2022/03/04 05:37:05;;;;;;;63.67;28.80;;;;;;;;;;751012;184;634895;-68
2022/03/04 05:39:31;;;;;;;67.23;32.50;;;;;;;;;;758697;184;622302;-68
2022/03/04 05:41:57;;;;;;;74.57;35.07;;;;;;;;;;758060;184;638672;-68
2022/03/04 05:44:23;;;;;;;69.47;34.57;;;;;;;;;;751844;184;627154;-67
2022/03/04 05:46:49;;;;;;;75.90;33.00;;;;;;;;;;759933;184;628205;-68
2022/03/04 05:49:15;;;;;;;64.00;31.50;;;;;;;;;;756837;184;619705;-68
2022/03/04 05:51:41;;;;;;;65.53;33.37;;;;;;;;;;752037;184;617012;-68
2022/03/04 05:54:06;;;;;;;61.50;32.33;;;;;;;;;;756973;184;613599;-68
2022/03/04 05:56:32;;;;;;;66.60;32.90;;;;;;;;;;759305;184;640603;-69
2022/03/04 05:58:58;;;;;;;67.20;32.87;;;;;;;;;;758829;182;625801;-68
2022/03/04 06:01:25;;;;;;;64.33;31.70;;;;;;;;;;764470;183;622461;-67
2022/03/04 06:03:51;;;;;;;64.10;31.70;;;;;;;;;;755829;183;624827;-68
2022/03/04 06:06:17;;;;;;;72.17;34.57;;;;;;;;;;756885;183;617564;-69
2022/03/04 06:08:43;;;;;;;77.43;31.97;;;;;;;;;;753450;184;614946;-68
2022/03/04 06:11:08;;;;;;;55.80;31.00;;;;;;;;;;757949;184;620840;-68
2022/03/04 06:13:35;;;;;;;61.40;32.30;;;;;;;;;;761295;183;631364;-69
2022/03/04 06:16:00;;;;;;;66.67;31.37;;;;;;;;;;763567;184;652112;-68
2022/03/04 06:18:26;;;;;;;62.77;29.07;;;;;;;;;;760562;183;626859;-68
2022/03/04 06:20:52;;;;;;;73.20;34.50;;;;;;;;;;752302;184;618364;-68
2022/03/04 06:23:18;;;;;;;70.60;37.67;;;;;;;;;;751880;184;626637;-68
2022/03/04 06:25:44;;;;;;;76.80;36.03;;;;;;;;;;762008;183;619312;-68
2022/03/04 06:28:09;;;;;;;84.90;42.27;;;;;;;;;;752346;184;623312;-68
2022/03/04 06:30:36;;;;;;;74.17;35.00;;;;;;;;;;755953;184;619596;-68
2022/03/04 06:33:35;;;;;;;68.57;34.53;;;;;;;;;;752361;184;626462;-68
2022/03/04 06:35:42;;;;;;;73.13;40.50;;;;;;;;;;750773;184;633381;-69
2022/03/04 06:38:08;;;;;;;77.83;34.47;;;;;;;;;;755571;184;657055;-68
2022/03/04 06:40:34;;;;;;;54.47;28.00;;;;;;;;;;752645;184;627047;-67
2022/03/04 06:43:00;;;;;;;74.53;32.00;;;;;;;;;;757657;184;620205;-67
2022/03/04 06:45:26;;;;;;;61.43;26.67;;;;;;;;;;757108;184;626574;-67
2022/03/04 06:47:52;;;;;;;75.93;35.37;;;;;;;;;;754629;183;767029;-68
2022/03/04 06:50:18;;;;;;;83.87;40.13;;;;;;;;;;753037;183;1141378;-68
2022/03/04 06:52:43;;;;;;;87.23;44.80;;;;;;;;;;759875;184;627853;-68
2022/03/04 06:55:09;;;;;;;61.13;31.63;;;;;;;;;;761886;184;615011;-67
2022/03/04 06:57:35;;;;;;;69.20;36.07;;;;;;;;;;760164;184;624419;-66
2022/03/04 07:00:02;;;;;;;95.30;49.57;;;;;;;;;;758013;184;626105;-65
2022/03/04 07:02:27;;;;;;;74.00;38.80;;;;;;;;;;753606;183;636353;-65
2022/03/04 07:04:53;;;;;;;68.00;33.40;;;;;;;;;;752878;184;630722;-64
2022/03/04 07:07:19;;;;;;;57.00;31.17;;;;;;;;;;757542;184;637056;-63
2022/03/04 07:09:44;;;;;;;88.80;33.73;;;;;;;;;;759600;183;616408;-62
2022/03/04 07:12:10;;;;;;;65.97;30.60;;;;;;;;;;755985;182;637120;-62
2022/03/04 07:14:36;;;;;;;105.17;49.17;;;;;;;;;;753741;184;684638;-62
2022/03/04 07:17:02;;;;;;;80.97;36.77;;;;;;;;;;755337;183;618953;-61
2022/03/04 07:19:28;;;;;;;76.67;35.33;;;;;;;;;;762615;183;638740;-61
2022/03/04 07:21:54;;;;;;;127.50;58.03;;;;;;;;;;755673;186;633734;-61
2022/03/04 07:24:20;;;;;;;73.67;37.30;;;;;;;;;;759147;184;631425;-61
2022/03/04 07:26:45;;;;;;;66.77;30.70;;;;;;;;;;757445;184;634098;-62
2022/03/04 07:29:11;;;;;;;75.80;36.30;;;;;;;;;;753572;184;633889;-62
2022/03/04 07:31:37;;;;;;;62.17;32.40;;;;;;;;;;753105;184;625103;-61
2022/03/04 07:34:03;;;;;;;62.70;31.37;;;;;;;;;;761886;181;639357;-62
2022/03/04 07:36:29;;;;;;;64.97;31.10;;;;;;;;;;753409;183;679591;-62
2022/03/04 07:38:57;;;;;;;74.60;33.30;;;;;;;;;;755650;184;631943;-63
2022/03/04 07:41:21;;;;;;;110.87;46.17;;;;;;;;;;764350;184;626196;-62
2022/03/04 07:43:46;;;;;;;82.13;31.97;;;;;;;;;;758939;184;619219;-62
2022/03/04 07:46:12;;;;;;;67.17;32.27;;;;;;;;;;756215;182;637357;-62
2022/03/04 07:48:38;;;;;;;71.50;35.17;;;;;;;;;;755992;184;623962;-62
2022/03/04 07:51:05;;;;;;;68.20;32.97;;;;;;;;;;759907;184;633440;-63
2022/03/04 07:53:30;;;;;;;69.73;31.10;;;;;;;;;;751813;184;655931;-63
2022/03/04 07:55:56;;;;;;;78.13;32.70;;;;;;;;;;755441;184;635153;-62
2022/03/04 07:58:21;;;;;;;58.17;24.47;;;;;;;;;;754712;183;633276;-62
2022/03/04 08:00:47;;;;;;;61.00;32.70;;;;;;;;;;754239;184;633681;-61
2022/03/04 08:03:13;;;;;;;67.93;34.60;;;;;;;;;;754268;184;617881;-62
2022/03/04 08:05:39;;;;;;;73.73;30.97;;;;;;;;;;757741;184;615038;-62
2022/03/04 08:08:05;;;;;;;70.13;33.30;;;;;;;;;;755182;184;616193;-62
2022/03/04 08:10:31;;;;;;;62.47;30.70;;;;;;;;;;755529;184;630551;-62
2022/03/04 08:12:56;;;;;;;68.30;31.90;;;;;;;;;;762433;184;637473;-61
2022/03/04 08:15:22;;;;;;;78.37;34.97;;;;;;;;;;755248;184;620134;-62
2022/03/04 08:17:48;;;;;;;73.40;37.70;;;;;;;;;;760330;184;624084;-61
2022/03/04 08:20:15;;;;;;;60.30;29.93;;;;;;;;;;754856;184;617641;-62
2022/03/04 08:22:40;;;;;;;55.37;27.70;;;;;;;;;;755045;184;626504;-61
2022/03/04 08:25:06;;;;;;;38.17;19.80;;;;;;;;;;753328;184;625285;-61
2022/03/04 08:27:32;;;;;;;44.77;23.30;;;;;;;;;;759168;183;618939;-62
2022/03/04 08:29:58;;;;;;;62.97;24.07;;;;;;;;;;765191;181;623225;-61
2022/03/04 08:32:23;;;;;;;80.87;33.37;;;;;;;;;;750297;183;636192;-60
2022/03/04 08:34:49;;;;;;;89.47;35.63;;;;;;;;;;758689;183;631124;-62
2022/03/04 08:37:16;;;;;;;96.50;40.53;;;;;;;;;;767577;184;627126;-62
2022/03/04 08:39:41;;;;;;;61.17;27.00;;;;;;;;;;758074;183;724819;-61
2022/03/04 08:42:07;;;;;;;51.60;25.77;;;;;;;;;;754915;184;634964;-62
2022/03/04 08:44:33;;;;;;;59.47;21.37;;;;;;;;;;756079;184;623724;-61
2022/03/04 08:46:59;;;;;;;49.93;25.30;;;;;;;;;;754127;184;617269;-62
2022/03/04 08:49:25;;;;;;;51.43;24.67;;;;;;;;;;755663;185;619228;-62
2022/03/04 08:51:50;;;;;;;53.97;27.23;;;;;;;;;;758100;185;635937;-62
2022/03/04 08:54:16;;;;;;;52.53;23.67;;;;;;;;;;752974;184;631628;-61
2022/03/04 08:56:42;;;;;;;48.30;23.67;;;;;;;;;;754746;184;630183;-62
2022/03/04 08:59:08;;;;;;;60.70;26.37;;;;;;;;;;752736;184;647938;-61
2022/03/04 09:01:34;;;;;;;49.83;24.03;;;;;;;;;;756878;184;615151;-62
2022/03/04 09:04:00;;;;;;;41.90;22.60;;;;;;;;;;760367;184;632668;-61
2022/03/04 09:06:25;;;;;;;53.13;28.30;;;;;;;;;;760359;184;634439;-62
2022/03/04 09:08:51;;;;;;;53.20;26.47;;;;;;;;;;758612;184;615106;-61
2022/03/04 09:11:17;;;;;;;43.53;21.77;;;;;;;;;;750267;184;632302;-61
2022/03/04 09:13:43;;;;;;;53.60;24.73;;;;;;;;;;764753;184;640997;-61
2022/03/04 09:16:09;;;;;;;50.60;23.40;;;;;;;;;;766447;184;614798;-62
2022/03/04 09:18:35;;;;;;;59.40;28.60;;;;;;;;;;754330;184;634864;-63
2022/03/04 09:21:00;;;;;;;47.63;27.13;;;;;;;;;;754132;184;618853;-61
2022/03/04 09:23:26;;;;;;;47.57;24.53;;;;;;;;;;756207;184;644304;-61
2022/03/04 09:25:52;;;;;;;57.73;25.73;;;;;;;;;;755386;186;616968;-62
2022/03/04 09:28:18;;;;;;;67.13;27.97;;;;;;;;;;754002;184;617111;-62
2022/03/04 09:30:44;;;;;;;45.12;25.17;;;;;;;;;;754767;184;671022;-62
2022/03/04 09:33:10;;;;;;;57.17;27.57;;;;;;;;;;758098;184;631352;-62
2022/03/04 09:35:36;;;;;;;64.43;33.50;;;;;;;;;;751894;183;1559543;-61
2022/03/04 09:38:01;;;;;;;48.57;26.23;;;;;;;;;;759556;183;627182;-62
2022/03/04 09:40:27;;;;;;;49.00;25.53;;;;;;;;;;757603;184;624590;-62
2022/03/04 09:42:53;;;;;;;60.07;26.77;;;;;;;;;;753047;183;629043;-61
2022/03/04 09:45:19;;;;;;;63.90;32.27;;;;;;;;;;757488;183;632293;-62
2022/03/04 09:47:45;;;;;;;54.47;28.33;;;;;;;;;;753267;183;621532;-63
2022/03/04 09:50:13;;;;;;;69.13;33.23;;;;;;;;;;748898;183;625296;-62
2022/03/04 09:52:36;;;;;;;56.85;29.25;;;;;;;;;;755223;184;633175;-62
2022/03/04 09:55:02;;;;;;;70.07;30.17;;;;;;;;;;758730;184;641664;-63
2022/03/04 09:57:28;;;;;;;48.60;23.63;;;;;;;;;;763703;184;624071;-62
2022/03/04 09:59:54;;;;;;;56.03;28.23;;;;;;;;;;765677;184;619538;-62
2022/03/04 10:02:20;;;;;;;54.97;24.40;;;;;;;;;;758163;183;627191;-62
2022/03/04 10:04:46;;;;;;;55.57;27.00;;;;;;;;;;755686;183;649496;-63
2022/03/04 10:07:12;;;;;;;58.67;28.40;;;;;;;;;;754340;184;629152;-62
2022/03/04 10:09:37;;;;;;;59.27;30.63;;;;;;;;;;756983;184;619792;-62
2022/03/04 10:12:04;;;;;;;47.67;25.63;;;;;;;;;;756837;184;615060;-61
2022/03/04 10:14:30;;;;;;;51.83;26.10;;;;;;;;;;757654;184;678993;-62
2022/03/04 10:16:55;;;;;;;57.37;28.03;;;;;;;;;;755173;184;636347;-63
2022/03/04 10:19:23;;;;;;;54.47;26.53;;;;;;;;;;756385;184;626396;-62
2022/03/04 10:21:48;;;;;;;65.87;28.63;;;;;;;;;;767950;181;623864;-62
2022/03/04 10:24:14;;;;;;;51.80;27.70;;;;;;;;;;753676;184;625993;-62
2022/03/04 10:26:40;;;;;;;48.90;26.40;;;;;;;;;;757471;184;634451;-62
2022/03/04 10:29:11;;;;;;;61.47;27.13;;;;;;;;;;763728;184;617034;-61
2022/03/04 10:31:37;;;;;;;60.57;29.77;;;;;;;;;;754392;184;631043;-62
2022/03/04 10:34:07;;;;;;;70.97;31.30;;;;;;;;;;756095;184;625035;-63
2022/03/04 10:36:32;;;;;;;57.80;28.37;;;;;;;;;;755921;184;636007;-62
2022/03/04 10:38:59;;;;;;;48.10;25.90;;;;;;;;;;758176;184;616805;-62
2022/03/04 10:41:25;;;;;;;46.27;25.10;;;;;;;;;;758484;183;617207;-62
2022/03/04 10:43:51;;;;;;;61.03;26.50;;;;;;;;;;758660;184;622199;-62
2022/03/04 10:46:17;;;;;;;49.93;23.70;;;;;;;;;;759374;182;616944;-62
2022/03/04 10:48:49;;;;;;;159.40;63.63;;;;;;;;;;756105;183;629275;-62
2022/03/04 10:51:15;;;;;;;52.60;28.07;;;;;;;;;;759872;183;651509;-62
2022/03/04 10:53:40;;;;;;;55.87;27.43;;;;;;;;;;748467;184;628434;-62
2022/03/04 10:56:06;;;;;;;50.90;25.60;;;;;;;;;;764303;183;624993;-63
2022/03/04 10:58:33;;;;;;;46.87;21.57;;;;;;;;;;755786;184;632786;-63
2022/03/04 11:00:58;;;;;;;48.63;26.97;;;;;;;;;;751941;184;620665;-63
2022/03/04 11:03:27;;;;;;;62.23;29.00;;;;;;;;;;759843;184;633892;-62
2022/03/04 11:05:53;;;;;;;50.27;25.20;;;;;;;;;;757893;184;629193;-62
2022/03/04 11:08:20;;;;;;;51.90;26.27;;;;;;;;;;756793;184;618181;-61
2022/03/04 11:10:44;;;;;;;47.20;24.07;;;;;;;;;;757010;184;617302;-62
2022/03/04 11:13:10;;;;;;;50.37;25.57;;;;;;;;;;756578;183;625446;-62
2022/03/04 11:15:36;;;;;;;49.00;22.37;;;;;;;;;;752424;183;630887;-62
2022/03/04 11:18:02;;;;;;;47.83;22.60;;;;;;;;;;752254;184;637935;-62
2022/03/04 11:20:28;;;;;;;45.37;25.30;;;;;;;;;;756212;184;629797;-61
2022/03/04 11:22:53;;;;;;;45.97;23.57;;;;;;;;;;750069;184;630584;-62
2022/03/04 11:25:19;;;;;;;51.30;24.20;;;;;;;;;;752944;184;631540;-62
2022/03/04 11:27:45;;;;;;;56.80;30.13;;;;;;;;;;764965;184;638988;-62
2022/03/04 11:30:17;;;;;;;47.37;23.50;;;;;;;;;;756111;184;634805;-62
2022/03/04 11:32:43;;;;;;;47.27;23.67;;;;;;;;;;757572;184;617036;-62
2022/03/04 11:35:08;;;;;;;45.83;23.50;;;;;;;;;;752770;184;687239;-62
2022/03/04 11:37:35;;;;;;;44.10;17.57;;;;;;;;;;764441;180;632642;-62
2022/03/04 11:40:02;;;;;;;36.97;18.83;;;;;;;;;;756641;184;627326;-62
2022/03/04 11:42:28;;;;;;;29.60;14.30;;;;;;;;;;750355;184;635841;-62
2022/03/04 11:44:54;;;;;;;33.47;16.60;;;;;;;;;;756337;183;630955;-62
2022/03/04 11:47:20;;;;;;;38.87;18.70;;;;;;;;;;756703;184;635639;-62
2022/03/04 11:49:47;;;;;;;46.70;21.50;;;;;;;;;;752940;184;625172;-61
2022/03/04 11:52:20;;;;;;;42.03;23.20;;;;;;;;;;755268;184;627394;-62
2022/03/04 11:54:45;;;;;;;36.70;17.50;;;;;;;;;;753194;184;615058;-62
2022/03/04 11:57:17;;;;;;;32.30;14.10;;;;;;;;;;757581;184;623561;-62
2022/03/04 11:59:48;;;;;;;26.13;12.20;;;;;;;;;;755683;183;635295;-61
2022/03/04 12:02:21;;;;;;;39.93;18.83;;;;;;;;;;752165;183;623816;-62
2022/03/04 12:04:49;;;;;;;38.17;19.27;;;;;;;;;;758521;184;861726;-62
2022/03/04 12:07:13;;;;;;;44.63;20.53;;;;;;;;;;759739;183;623933;-62
2022/03/04 12:09:39;;;;;;;41.23;18.63;;;;;;;;;;760153;183;632152;-62
2022/03/04 12:12:08;;;;;;;36.83;18.23;;;;;;;;;;761420;183;616209;-61
2022/03/04 12:14:34;;;;;;;31.53;15.80;;;;;;;;;;756124;183;626586;-61
2022/03/04 12:17:00;;;;;;;35.67;18.07;;;;;;;;;;753332;184;628205;-61
2022/03/04 12:19:28;;;;;;;39.87;18.83;;;;;;;;;;752613;184;634457;-61
2022/03/04 12:21:53;;;;;;;39.20;18.90;;;;;;;;;;758335;184;621576;-61
2022/03/04 12:24:19;;;;;;;24.07;13.33;;;;;;;;;;754385;184;674199;-61
2022/03/04 12:26:46;;;;;;;34.27;19.27;;;;;;;;;;756340;184;630119;-62
2022/03/04 12:29:11;;;;;;;50.67;24.27;;;;;;;;;;761816;184;628960;-61
2022/03/04 12:31:40;;;;;;;46.70;26.63;;;;;;;;;;755225;184;636875;-61
2022/03/04 12:34:06;;;;;;;48.53;23.60;;;;;;;;;;753734;184;638709;-61
2022/03/04 12:36:31;;;;;;;50.60;21.00;;;;;;;;;;755955;184;645149;-60
2022/03/04 12:38:57;;;;;;;39.17;16.50;;;;;;;;;;755286;184;625200;-61
2022/03/04 12:41:24;;;;;;;49.30;23.83;;;;;;;;;;756278;184;623319;-61
2022/03/04 12:43:50;;;;;;;43.60;24.57;;;;;;;;;;758942;184;628290;-62
2022/03/04 12:46:16;;;;;;;25.97;13.73;;;;;;;;;;758156;184;632237;-63
2022/03/04 12:48:41;;;;;;;36.40;18.07;;;;;;;;;;755477;184;636077;-61
2022/03/04 12:51:23;;;;;;;40.80;20.90;;;;;;;;;;756728;184;686628;-63
2022/03/04 12:53:49;;;;;;;42.93;21.57;;;;;;;;;;753731;184;646071;-62
2022/03/04 12:56:17;;;;;;;42.83;19.77;;;;;;;;;;757593;184;617929;-62
2022/03/04 12:58:41;;;;;;;46.93;23.20;;;;;;;;;;751966;184;625673;-61
2022/03/04 13:01:07;;;;;;;49.07;21.80;;;;;;;;;;756930;183;628940;-60
2022/03/04 13:03:32;;;;;;;49.13;25.67;;;;;;;;;;754009;184;618612;-61
2022/03/04 13:05:58;;;;;;;67.13;37.57;;;;;;;;;;759693;184;618777;-62
2022/03/04 13:08:24;;;;;;;47.90;24.80;;;;;;;;;;757861;183;622904;-62
2022/03/04 13:10:50;;;;;;;40.63;19.90;;;;;;;;;;754780;183;634365;-60
2022/03/04 13:13:16;;;;;;;46.03;23.20;;;;;;;;;;756558;184;614956;-62
2022/03/04 13:15:46;;;;;;;56.93;28.80;;;;;;;;;;752188;184;623842;-62
2022/03/04 13:18:12;;;;;;;52.30;25.20;;;;;;;;;;757039;184;630212;-61
2022/03/04 13:20:38;;;;;;;47.73;23.17;;;;;;;;;;760003;183;629023;-62
2022/03/04 13:23:04;;;;;;;47.47;22.97;;;;;;;;;;763123;182;630934;-63
2022/03/04 13:25:30;;;;;;;46.67;24.87;;;;;;;;;;756608;183;679947;-62
2022/03/04 13:27:56;;;;;;;30.73;16.50;;;;;;;;;;759273;184;629088;-62
2022/03/04 13:30:22;;;;;;;30.23;17.37;;;;;;;;;;760343;184;626349;-61
2022/03/04 13:32:54;;;;;;;53.20;24.40;;;;;;;;;;755908;184;640401;-62
2022/03/04 13:35:16;;;;;;;54.73;26.30;;;;;;;;;;758247;184;629581;-62
2022/03/04 13:37:39;;;;;;;61.13;29.93;;;;;;;;;;755026;184;626242;-62
2022/03/04 13:40:05;;;;;;;45.27;22.67;;;;;;;;;;755698;183;638273;-61
2022/03/04 13:42:31;;;;;;;50.20;23.97;;;;;;;;;;760965;183;633675;-62
2022/03/04 13:45:00;;;;;;;50.70;22.27;;;;;;;;;;756542;184;630958;-61
2022/03/04 13:47:28;;;;;;;53.27;24.80;;;;;;;;;;758598;182;767608;-62
2022/03/04 13:49:53;;;;;;;44.53;20.00;;;;;;;;;;752689;184;636274;-61
2022/03/04 13:52:19;;;;;;;67.67;30.37;;;;;;;;;;754579;184;628649;-62
2022/03/04 13:55:03;;;;;;;57.20;28.90;;;;;;;;;;758929;184;625238;-62
2022/03/04 13:57:32;;;;;;;61.07;27.83;;;;;;;;;;758046;184;626187;-62